createdAt,value
2023-05-10T00:01:14.362Z,99851.13
2023-05-10T00:03:41.376Z,99858.28
2023-05-10T00:06:08.006Z,99859.59
2023-05-10T00:08:34.663Z,99856.19
2023-05-10T00:11:01.381Z,99852.09
2023-05-10T00:13:28.143Z,99862.13
2023-05-10T00:15:54.807Z,99852.84
2023-05-10T00:18:21.380Z,99854.28
2023-05-10T00:20:49.635Z,99856.81
2023-05-10T00:23:16.306Z,99853.00
2023-05-10T00:25:43.008Z,99861.16
2023-05-10T00:28:09.621Z,99863.47
2023-05-10T00:30:37.720Z,99854.44
2023-05-10T00:33:04.375Z,99856.91
2023-05-10T00:35:31.046Z,99859.63
2023-05-10T00:37:57.664Z,99865.28
2023-05-10T00:40:24.360Z,99857.53
2023-05-10T00:42:55.271Z,99858.69
2023-05-10T00:45:21.966Z,99857.31
2023-05-10T00:47:48.613Z,99855.47
2023-05-10T00:50:16.384Z,99855.22
2023-05-10T00:52:43.804Z,99852.72
2023-05-10T00:55:12.378Z,99851.47
2023-05-10T00:57:39.726Z,99853.88
2023-05-10T01:00:06.936Z,99860.75
2023-05-10T01:02:35.406Z,99861.19
2023-05-10T01:05:04.452Z,99857.31
2023-05-10T01:07:31.099Z,99855.84
2023-05-10T01:09:58.409Z,99858.16
2023-05-10T01:12:25.183Z,99863.16
2023-05-10T01:14:52.390Z,99862.34
2023-05-10T01:17:19.553Z,99866.19
2023-05-10T01:19:46.236Z,99869.00
2023-05-10T01:22:31.337Z,99865.56
2023-05-10T01:25:20.470Z,99865.47
2023-05-10T01:27:56.170Z,99875.19
2023-05-10T01:35:19.712Z,99874.97
2023-05-10T01:37:57.316Z,99876.06
2023-05-10T01:40:30.345Z,99884.97
2023-05-10T01:43:03.785Z,99889.09
2023-05-10T01:45:37.868Z,99889.34
2023-05-10T01:48:10.497Z,99894.34
2023-05-10T01:50:40.848Z,99901.91
2023-05-10T01:53:09.822Z,99901.56
2023-05-10T01:55:50.435Z,99891.09
2023-05-10T01:58:24.437Z,99889.56
2023-05-10T02:00:53.292Z,99890.53
2023-05-10T02:03:24.257Z,99895.66
2023-05-10T02:05:52.809Z,99889.50
2023-05-10T02:08:23.356Z,99886.78
2023-05-10T02:10:53.093Z,99898.16
2023-05-10T02:13:20.710Z,99901.22
2023-05-10T02:15:52.196Z,99900.47
2023-05-10T02:18:19.715Z,99903.13
2023-05-10T02:20:47.990Z,99898.09
2023-05-10T02:23:18.479Z,99911.66
2023-05-10T02:25:46.689Z,99913.91
2023-05-10T02:28:15.382Z,99913.75
2023-05-10T02:30:42.832Z,99914.84
2023-05-10T02:33:10.056Z,99912.34
2023-05-10T02:35:37.772Z,99904.88
2023-05-10T02:38:06.571Z,99915.97
2023-05-10T02:40:34.282Z,99918.69
2023-05-10T02:43:02.610Z,99919.81
2023-05-10T02:45:32.366Z,99906.84
2023-05-10T02:48:00.406Z,99910.75
2023-05-10T02:50:28.856Z,99911.03
2023-05-10T02:53:01.769Z,99918.13
2023-05-10T02:55:36.284Z,99918.16
2023-05-10T02:58:03.946Z,99910.81
2023-05-10T03:00:30.623Z,99914.88
2023-05-10T03:02:57.336Z,99909.16
2023-05-10T03:05:24.459Z,99914.88
2023-05-10T03:07:52.296Z,99912.81
2023-05-10T03:10:19.927Z,99911.00
2023-05-10T03:13:07.044Z,99902.88
2023-05-10T03:16:12.677Z,99914.38
2023-05-10T03:18:56.054Z,99927.28
2023-05-10T03:21:26.795Z,99928.03
2023-05-10T03:24:12.863Z,99926.94
2023-05-10T03:26:41.373Z,99927.84
2023-05-10T03:29:15.066Z,99929.69
2023-05-10T03:31:41.967Z,99931.69
2023-05-10T03:34:08.550Z,99928.78
2023-05-10T03:36:35.320Z,99926.34
2023-05-10T03:39:02.254Z,99927.63
2023-05-10T03:41:29.307Z,99931.56
2023-05-10T03:43:55.899Z,99939.03
2023-05-10T03:46:22.530Z,99938.34
2023-05-10T03:48:49.378Z,99942.44
2023-05-10T03:51:15.949Z,99942.84
2023-05-10T03:53:42.420Z,99940.34
2023-05-10T03:56:08.990Z,99949.00
2023-05-10T03:58:36.162Z,99948.63
2023-05-10T04:01:03.372Z,99949.81
2023-05-10T04:03:30.562Z,99949.19
2023-05-10T04:06:02.382Z,99949.00
2023-05-10T04:08:29.907Z,99947.22
2023-05-10T04:11:10.936Z,99954.88
2023-05-10T04:13:37.761Z,99948.31
2023-05-10T04:16:04.983Z,99947.03
2023-05-10T04:18:32.285Z,99949.66
2023-05-10T04:20:58.947Z,99953.72
2023-05-10T04:23:25.543Z,99948.91
2023-05-10T04:25:52.070Z,99945.13
2023-05-10T04:28:19.014Z,99951.19
2023-05-10T04:30:45.738Z,99954.09
2023-05-10T04:33:12.302Z,99955.06
2023-05-10T04:35:39.733Z,99960.84
2023-05-10T04:38:06.548Z,99954.16
2023-05-10T04:40:33.077Z,99958.63
2023-05-10T04:42:59.637Z,99957.19
2023-05-10T04:45:26.123Z,99958.03
2023-05-10T04:47:52.701Z,99965.94
2023-05-10T04:50:19.362Z,99966.69
2023-05-10T04:52:45.933Z,99959.91
2023-05-10T04:55:12.525Z,99970.84
2023-05-10T04:57:39.091Z,99964.97
2023-05-10T05:00:06.334Z,99968.09
2023-05-10T05:02:33.025Z,99979.69
2023-05-10T05:04:59.680Z,99982.97
2023-05-10T05:07:26.270Z,99976.69
2023-05-10T05:09:52.784Z,99978.16
2023-05-10T05:12:19.505Z,99981.91
2023-05-10T05:14:46.185Z,99982.75
2023-05-10T05:17:12.742Z,99988.44
2023-05-10T05:19:39.352Z,99988.19
2023-05-10T05:22:07.967Z,99990.34
2023-05-10T05:24:41.137Z,99990.88
2023-05-10T05:27:07.851Z,99984.72
2023-05-10T05:29:34.641Z,99991.22
2023-05-10T05:32:01.318Z,99994.13
2023-05-10T05:34:27.965Z,99998.50
2023-05-10T05:36:54.889Z,100000.06
2023-05-10T05:39:21.483Z,99994.88
2023-05-10T05:41:48.103Z,100000.78
2023-05-10T05:44:14.605Z,100003.19
2023-05-10T05:46:41.164Z,100007.78
2023-05-10T05:49:07.692Z,100008.22
2023-05-10T05:51:35.610Z,100009.03
2023-05-10T05:54:02.604Z,100002.78
2023-05-10T05:56:29.259Z,100005.50
2023-05-10T05:58:55.828Z,100010.72
2023-05-10T06:01:22.459Z,100013.44
2023-05-10T06:03:51.029Z,100019.63
2023-05-10T06:06:19.198Z,100026.47
2023-05-10T06:08:45.857Z,100022.25
2023-05-10T06:11:12.411Z,100026.59
2023-05-10T06:13:38.983Z,100025.06
2023-05-10T06:16:06.446Z,100031.00
2023-05-10T06:18:33.138Z,100040.63
2023-05-10T06:20:59.720Z,100042.00
2023-05-10T06:23:26.456Z,100029.78
2023-05-10T06:25:53.393Z,100038.16
2023-05-10T06:28:20.011Z,100048.91
2023-05-10T06:30:46.545Z,100049.66
2023-05-10T06:33:13.244Z,100058.66
2023-05-10T06:35:39.979Z,100054.25
2023-05-10T06:38:06.592Z,100048.84
2023-05-10T06:40:33.796Z,100050.50
2023-05-10T06:43:00.462Z,100044.03
2023-05-10T06:45:27.077Z,100057.38
2023-05-10T06:47:53.782Z,100045.22
2023-05-10T06:50:20.476Z,100060.31
2023-05-10T06:52:47.158Z,100063.94
2023-05-10T06:55:13.894Z,100062.50
2023-05-10T06:57:40.558Z,100057.81
2023-05-10T07:00:08.094Z,100061.34
2023-05-10T07:02:34.724Z,100070.47
2023-05-10T07:05:03.158Z,100072.84
2023-05-10T07:07:30.748Z,100072.31
2023-05-10T07:09:58.412Z,100071.38
2023-05-10T07:12:25.778Z,100069.09
2023-05-10T07:14:52.379Z,100068.28
2023-05-10T07:17:19.206Z,100070.78
2023-05-10T07:19:45.819Z,100072.13
2023-05-10T07:22:12.475Z,100071.25
2023-05-10T07:24:39.027Z,100076.06
2023-05-10T07:27:05.713Z,100074.78
2023-05-10T07:29:32.505Z,100070.19
2023-05-10T07:31:59.271Z,100081.84
2023-05-10T07:34:26.584Z,100079.25
2023-05-10T07:36:53.585Z,100073.41
2023-05-10T07:39:27.182Z,100077.13
2023-05-10T07:41:55.967Z,100081.84
2023-05-10T07:44:22.688Z,100075.31
2023-05-10T07:46:49.477Z,100078.44
2023-05-10T07:49:16.065Z,100077.59
2023-05-10T07:51:43.364Z,100077.78
2023-05-10T07:54:09.985Z,100081.41
2023-05-10T07:56:37.141Z,100086.25
2023-05-10T07:59:05.896Z,100086.34
2023-05-10T08:06:09.923Z,100092.75
2023-05-10T08:08:37.156Z,100099.97
2023-05-10T08:11:04.723Z,100096.38
2023-05-10T08:13:32.305Z,100099.19
2023-05-10T08:20:36.872Z,100106.88
2023-05-10T08:23:03.493Z,100107.88
2023-05-10T08:25:30.199Z,100112.22
2023-05-10T08:27:56.818Z,100117.16
2023-05-10T08:30:23.514Z,100104.88
2023-05-10T08:32:50.206Z,100113.63
2023-05-10T08:35:17.130Z,100119.00
2023-05-10T08:37:43.895Z,100117.63
2023-05-10T08:40:12.713Z,100127.22
2023-05-10T08:42:44.277Z,100132.38
2023-05-10T08:45:12.325Z,100136.50
2023-05-10T08:47:39.942Z,100137.16
2023-05-10T08:50:07.832Z,100142.25
2023-05-10T08:52:39.621Z,100138.78
2023-05-10T08:55:06.449Z,100135.59
2023-05-10T08:57:33.287Z,100142.25
2023-05-10T09:00:01.730Z,100135.03
2023-05-10T09:02:28.391Z,100136.53
2023-05-10T09:04:55.314Z,100138.22
2023-05-10T09:07:21.982Z,100142.41
2023-05-10T09:09:49.694Z,100135.63
2023-05-10T09:12:17.156Z,100150.00
2023-05-10T09:14:45.401Z,100142.34
2023-05-10T09:17:12.065Z,100154.13
2023-05-10T09:19:38.985Z,100156.31
2023-05-10T09:22:05.642Z,100158.69
2023-05-10T09:24:32.197Z,100161.72
2023-05-10T09:26:59.373Z,100164.22
2023-05-10T09:29:25.976Z,100162.31
2023-05-10T09:31:55.122Z,100157.69
2023-05-10T09:34:30.587Z,100160.69
2023-05-10T09:36:58.351Z,100161.13
2023-05-10T09:39:32.821Z,100156.06
2023-05-10T09:42:05.005Z,100170.31
2023-05-10T09:44:33.624Z,100166.56
2023-05-10T09:47:01.810Z,100175.25
2023-05-10T09:49:28.536Z,100162.06
2023-05-10T09:52:06.064Z,100170.69
2023-05-10T09:54:33.873Z,100178.56
2023-05-10T09:57:01.540Z,100176.97
2023-05-10T09:59:29.473Z,100183.88
2023-05-10T10:02:01.188Z,100178.16
2023-05-10T10:04:28.845Z,100179.38
2023-05-10T10:07:03.777Z,100184.38
2023-05-10T10:09:30.808Z,100190.13
2023-05-10T10:11:57.698Z,100188.66
2023-05-10T10:14:25.262Z,100189.38
2023-05-10T10:17:05.772Z,100180.91
2023-05-10T10:24:13.834Z,100189.28
2023-05-10T10:26:43.948Z,100198.22
2023-05-10T10:29:25.110Z,100188.13
2023-05-10T10:32:10.110Z,100200.09
2023-05-10T10:34:37.863Z,100196.31
2023-05-10T10:37:07.908Z,100190.31
2023-05-10T10:39:37.346Z,100191.84
2023-05-10T10:42:05.636Z,100191.78
2023-05-10T10:49:11.475Z,100195.06
2023-05-10T10:52:14.018Z,100194.28
2023-05-10T10:54:40.715Z,100201.75
2023-05-10T10:57:15.200Z,100206.94
2023-05-10T10:59:45.411Z,100208.31
2023-05-10T11:02:36.146Z,100209.63
2023-05-10T11:05:33.727Z,100218.50
2023-05-10T11:11:53.437Z,100226.19
2023-05-10T11:14:23.848Z,100223.19
2023-05-10T11:16:51.375Z,100223.00
2023-05-10T11:19:19.264Z,100231.69
2023-05-10T11:22:13.224Z,100224.06
2023-05-10T11:24:40.036Z,100226.00
2023-05-10T11:27:07.249Z,100229.53
2023-05-10T11:29:33.928Z,100237.44
2023-05-10T11:32:01.073Z,100235.66
2023-05-10T11:34:34.331Z,100237.69
2023-05-10T11:37:01.766Z,100237.34
2023-05-10T11:39:30.708Z,100231.25
2023-05-10T11:41:58.689Z,100237.69
2023-05-10T11:44:31.318Z,100242.56
2023-05-10T11:47:02.081Z,100244.84
2023-05-10T11:49:28.947Z,100239.53
2023-05-10T11:52:08.133Z,100243.88
2023-05-10T11:54:37.707Z,100246.84
2023-05-10T11:57:04.907Z,100261.03
2023-05-10T11:59:31.579Z,100251.19
2023-05-10T12:01:58.524Z,100253.59
2023-05-10T12:04:25.894Z,100253.31
2023-05-10T12:06:52.625Z,100256.22
2023-05-10T12:09:28.026Z,100253.00
2023-05-10T12:11:58.559Z,100258.00
2023-05-10T12:14:25.364Z,100251.22
2023-05-10T12:16:52.343Z,100264.34
2023-05-10T12:19:21.303Z,100251.78
2023-05-10T12:21:48.176Z,100261.41
2023-05-10T12:24:17.465Z,100263.44
2023-05-10T12:26:46.618Z,100272.97
2023-05-10T12:29:18.382Z,100273.75
2023-05-10T12:31:59.256Z,100267.41
2023-05-10T12:34:26.863Z,100271.31
2023-05-10T12:36:54.636Z,100270.22
2023-05-10T12:39:21.246Z,100267.75
2023-05-10T12:41:47.972Z,100273.03
2023-05-10T12:44:19.967Z,100262.72
2023-05-10T12:46:47.066Z,100272.28
2023-05-10T12:49:13.801Z,100273.28
2023-05-10T12:51:40.412Z,100270.28
2023-05-10T12:54:06.923Z,100270.91
2023-05-10T12:56:33.589Z,100269.97
2023-05-10T12:59:00.281Z,100268.59
2023-05-10T13:01:27.633Z,100270.16
2023-05-10T13:03:54.334Z,100276.00
2023-05-10T13:06:21.294Z,100267.75
2023-05-10T13:08:47.934Z,100264.81
2023-05-10T13:11:17.561Z,100264.00
2023-05-10T13:13:44.228Z,100276.22
2023-05-10T13:16:11.016Z,100272.63
2023-05-10T13:18:37.697Z,100276.25
2023-05-10T13:21:06.299Z,100274.66
2023-05-10T13:23:32.933Z,100269.97
2023-05-10T13:25:59.580Z,100266.00
2023-05-10T13:28:27.242Z,100269.19
2023-05-10T13:30:53.944Z,100271.72
2023-05-10T13:33:20.609Z,100272.69
2023-05-10T13:35:47.312Z,100279.81
2023-05-10T13:38:14.640Z,100277.28
2023-05-10T13:40:41.409Z,100273.94
2023-05-10T13:43:08.353Z,100277.78
2023-05-10T13:45:35.118Z,100278.63
2023-05-10T13:48:01.871Z,100283.78
2023-05-10T13:50:28.790Z,100279.28
2023-05-10T13:52:55.362Z,100274.06
2023-05-10T13:55:22.145Z,100273.63
2023-05-10T13:57:49.373Z,100279.59
2023-05-10T14:00:17.273Z,100273.47
2023-05-10T14:02:44.002Z,100273.78
2023-05-10T14:05:11.078Z,100275.00
2023-05-10T14:07:37.787Z,100273.63
2023-05-10T14:10:04.772Z,100265.97
2023-05-10T14:12:31.468Z,100272.28
2023-05-10T14:14:59.061Z,100266.78
2023-05-10T14:17:25.636Z,100260.13
2023-05-10T14:19:52.969Z,100269.31
2023-05-10T14:22:19.711Z,100260.13
2023-05-10T14:24:47.782Z,100266.97
2023-05-10T14:27:14.499Z,100260.28
2023-05-10T14:29:41.129Z,100263.78
2023-05-10T14:32:07.936Z,100262.94
2023-05-10T14:34:34.628Z,100270.97
2023-05-10T14:37:01.247Z,100266.00
2023-05-10T14:39:30.475Z,100270.34
2023-05-10T14:41:57.374Z,100267.00
2023-05-10T14:44:24.604Z,100264.66
2023-05-10T14:46:51.622Z,100264.66
2023-05-10T14:49:18.214Z,100264.66
2023-05-10T14:51:45.867Z,100266.94
2023-05-10T14:54:12.472Z,100267.63
2023-05-10T14:56:39.261Z,100272.69
2023-05-10T14:59:05.901Z,100271.94
2023-05-10T15:01:33.949Z,100269.25
2023-05-10T15:04:01.546Z,100273.63
2023-05-10T15:06:32.883Z,100267.78
2023-05-10T15:08:59.522Z,100269.63
2023-05-10T15:11:26.172Z,100269.06
2023-05-10T15:13:52.974Z,100269.66
2023-05-10T15:16:19.622Z,100271.91
2023-05-10T15:18:46.384Z,100270.63
2023-05-10T15:21:13.518Z,100266.09
2023-05-10T15:23:40.095Z,100275.78
2023-05-10T15:26:06.839Z,100270.75
2023-05-10T15:28:34.345Z,100273.91
2023-05-10T15:31:01.372Z,100281.47
2023-05-10T15:33:28.447Z,100281.63
2023-05-10T15:35:55.242Z,100287.00
2023-05-10T15:38:21.909Z,100286.47
2023-05-10T15:40:48.453Z,100279.81
2023-05-10T15:43:15.134Z,100286.56
2023-05-10T15:45:41.738Z,100290.28
2023-05-10T15:48:08.427Z,100288.41
2023-05-10T15:50:35.103Z,100279.63
2023-05-10T15:53:01.729Z,100288.28
2023-05-10T15:55:28.382Z,100288.84
2023-05-10T15:57:57.369Z,100298.03
2023-05-10T16:00:24.164Z,100294.50
2023-05-10T16:02:53.535Z,100293.16
2023-05-10T16:05:20.382Z,100292.81
2023-05-10T16:07:47.536Z,100289.00
2023-05-10T16:10:14.040Z,100295.53
2023-05-10T16:12:40.835Z,100297.47
2023-05-10T16:15:08.872Z,100305.00
2023-05-10T16:17:35.598Z,100306.69
2023-05-10T16:20:02.288Z,100307.16
2023-05-10T16:22:29.524Z,100303.66
2023-05-10T16:24:59.114Z,100305.47
2023-05-10T16:27:28.527Z,100306.50
2023-05-10T16:29:55.069Z,100306.97
2023-05-10T16:32:21.756Z,100307.03
2023-05-10T16:34:50.047Z,100310.03
2023-05-10T16:37:16.911Z,100313.22
2023-05-10T16:39:43.895Z,100313.03
2023-05-10T16:42:10.983Z,100311.03
2023-05-10T16:44:37.685Z,100321.50
2023-05-10T16:47:04.504Z,100317.19
2023-05-10T16:49:31.480Z,100321.16
2023-05-10T16:51:58.359Z,100324.34
2023-05-10T16:54:24.986Z,100337.44
2023-05-10T16:56:51.828Z,100331.28
2023-05-10T16:59:18.425Z,100331.78
2023-05-10T17:01:46.056Z,100338.69
2023-05-10T17:04:14.855Z,100338.28
2023-05-10T17:06:42.166Z,100341.53
2023-05-10T17:09:08.759Z,100337.41
2023-05-10T17:11:35.570Z,100345.31
2023-05-10T17:14:02.255Z,100350.88
2023-05-10T17:16:30.030Z,100341.41
2023-05-10T17:18:57.796Z,100351.28
2023-05-10T17:21:24.990Z,100355.34
2023-05-10T17:23:51.641Z,100354.38
2023-05-10T17:26:18.340Z,100356.38
2023-05-10T17:28:44.894Z,100354.91
2023-05-10T17:31:11.967Z,100358.06
2023-05-10T17:33:38.631Z,100351.75
2023-05-10T17:36:05.338Z,100353.91
2023-05-10T17:38:31.964Z,100367.88
2023-05-10T17:40:58.550Z,100363.19
2023-05-10T17:43:25.968Z,100374.78
2023-05-10T17:45:52.886Z,100372.44
2023-05-10T17:48:19.521Z,100383.97
2023-05-10T17:50:46.180Z,100377.31
2023-05-10T17:53:12.689Z,100375.78
2023-05-10T17:55:41.093Z,100384.22
2023-05-10T17:58:08.138Z,100385.69
2023-05-10T18:00:35.802Z,100393.91
2023-05-10T18:03:03.250Z,100391.00
2023-05-10T18:05:30.122Z,100392.63
2023-05-10T18:07:56.955Z,100398.66
2023-05-10T18:10:24.579Z,100397.13
2023-05-10T18:12:52.247Z,100392.34
2023-05-10T18:15:19.017Z,100404.66
2023-05-10T18:17:45.762Z,100402.78
2023-05-10T18:20:12.960Z,100398.13
2023-05-10T18:22:39.873Z,100397.94
2023-05-10T18:25:07.102Z,100396.28
2023-05-10T18:27:34.254Z,100403.34
2023-05-10T18:30:01.133Z,100404.25
2023-05-10T18:32:27.946Z,100403.34
2023-05-10T18:34:55.865Z,100405.66
2023-05-10T18:37:22.710Z,100405.00
2023-05-10T18:39:49.801Z,100402.09
2023-05-10T18:42:16.343Z,100406.28
2023-05-10T18:44:42.930Z,100407.69
2023-05-10T18:47:09.510Z,100411.88
2023-05-10T18:49:36.099Z,100419.59
2023-05-10T18:52:02.560Z,100415.00
2023-05-10T18:54:29.921Z,100416.78
2023-05-10T18:56:58.451Z,100416.66
2023-05-10T18:59:27.685Z,100426.81
2023-05-10T19:01:55.044Z,100422.34
2023-05-10T19:04:24.601Z,100426.53
2023-05-10T19:06:51.413Z,100426.09
2023-05-10T19:09:20.031Z,100428.97
2023-05-10T19:11:46.534Z,100431.22
2023-05-10T19:14:13.101Z,100439.53
2023-05-10T19:16:40.000Z,100435.09
2023-05-10T19:19:08.698Z,100434.59
2023-05-10T19:21:35.473Z,100445.03
2023-05-10T19:24:02.206Z,100451.91
2023-05-10T19:26:28.780Z,100448.06
2023-05-10T19:28:57.376Z,100456.16
2023-05-10T19:31:24.433Z,100447.28
2023-05-10T19:33:51.118Z,100458.28
2023-05-10T19:36:17.633Z,100446.25
2023-05-10T19:38:44.270Z,100452.72
2023-05-10T19:41:11.381Z,100459.75
2023-05-10T19:43:39.524Z,100465.13
2023-05-10T19:46:06.154Z,100460.41
2023-05-10T19:48:32.670Z,100464.66
2023-05-10T19:51:01.301Z,100459.34
2023-05-10T19:53:28.200Z,100461.66
2023-05-10T19:55:55.747Z,100464.59
2023-05-10T19:58:23.345Z,100466.31
2023-05-10T20:00:50.012Z,100456.06
2023-05-10T20:03:16.713Z,100457.34
2023-05-10T20:05:43.334Z,100463.59
2023-05-10T20:08:09.915Z,100455.16
2023-05-10T20:10:36.398Z,100462.59
2023-05-10T20:13:03.079Z,100469.84
2023-05-10T20:15:30.363Z,100461.09
2023-05-10T20:17:57.080Z,100466.25
2023-05-10T20:20:23.804Z,100463.56
2023-05-10T20:22:51.063Z,100460.31
2023-05-10T20:25:18.530Z,100454.31
2023-05-10T20:27:45.285Z,100448.84
2023-05-10T20:30:12.318Z,100453.75
2023-05-10T20:32:39.505Z,100457.31
2023-05-10T20:35:07.052Z,100460.28
2023-05-10T20:37:33.611Z,100464.84
2023-05-10T20:40:00.219Z,100454.31
2023-05-10T20:42:27.009Z,100454.88
2023-05-10T20:44:53.653Z,100461.81
2023-05-10T20:47:20.389Z,100457.84
2023-05-10T20:49:46.956Z,100461.47
2023-05-10T20:52:13.722Z,100464.84
2023-05-10T20:54:40.322Z,100466.63
2023-05-10T20:57:07.198Z,100461.84
2023-05-10T20:59:34.042Z,100460.53
2023-05-10T21:02:01.125Z,100463.44
2023-05-10T21:04:27.886Z,100466.56
2023-05-10T21:06:56.032Z,100462.66
2023-05-10T21:09:22.794Z,100463.28
2023-05-10T21:11:50.673Z,100459.44
2023-05-10T21:14:17.296Z,100460.63
2023-05-10T21:16:43.928Z,100465.47
2023-05-10T21:19:11.348Z,100458.38
2023-05-10T21:21:37.914Z,100469.28
2023-05-10T21:24:04.809Z,100459.97
2023-05-10T21:26:31.468Z,100462.94
2023-05-10T21:28:59.172Z,100465.03
2023-05-10T21:31:25.873Z,100458.72
2023-05-10T21:33:52.491Z,100460.19
2023-05-10T21:36:19.116Z,100456.53
2023-05-10T21:38:46.298Z,100464.38
2023-05-10T21:41:12.885Z,100465.91
2023-05-10T21:43:39.385Z,100466.13
2023-05-10T21:46:07.106Z,100463.63
2023-05-10T21:48:33.831Z,100466.97
2023-05-10T21:51:01.574Z,100467.09
2023-05-10T21:53:28.666Z,100472.63
2023-05-10T21:55:56.145Z,100467.19
2023-05-10T21:58:23.240Z,100467.72
2023-05-10T22:00:49.960Z,100474.13
2023-05-10T22:03:16.665Z,100464.69
2023-05-10T22:05:43.434Z,100466.88
2023-05-10T22:08:09.938Z,100467.91
2023-05-10T22:10:36.473Z,100469.09
2023-05-10T22:13:03.114Z,100473.72
2023-05-10T22:15:31.104Z,100472.94
2023-05-10T22:17:58.029Z,100479.22
2023-05-10T22:20:24.602Z,100476.25
2023-05-10T22:22:51.140Z,100478.16
2023-05-10T22:25:17.883Z,100475.38
2023-05-10T22:27:44.415Z,100478.41
2023-05-10T22:30:11.335Z,100475.66
2023-05-10T22:32:38.005Z,100471.28
2023-05-10T22:35:04.921Z,100467.53
2023-05-10T22:37:31.491Z,100485.84
2023-05-10T22:39:58.021Z,100472.72
2023-05-10T22:42:24.624Z,100484.06
2023-05-10T22:44:51.252Z,100482.59
2023-05-10T22:47:17.770Z,100479.06
2023-05-10T22:49:44.347Z,100479.81
2023-05-10T22:52:10.916Z,100476.75
2023-05-10T22:54:37.482Z,100479.88
2023-05-10T22:57:04.510Z,100484.06
2023-05-10T22:59:31.358Z,100484.25
2023-05-10T23:01:58.084Z,100482.13
2023-05-10T23:04:24.759Z,100487.91
2023-05-10T23:06:51.359Z,100486.72
2023-05-10T23:09:20.693Z,100483.53
2023-05-10T23:11:47.293Z,100491.03
2023-05-10T23:14:13.831Z,100487.41
2023-05-10T23:16:40.508Z,100486.25
2023-05-10T23:19:07.333Z,100483.00
2023-05-10T23:21:34.386Z,100492.69
2023-05-10T23:24:00.976Z,100485.69
2023-05-10T23:26:27.540Z,100487.28
2023-05-10T23:28:54.115Z,100476.75
2023-05-10T23:31:20.765Z,100474.63
2023-05-10T23:33:47.318Z,100485.72
2023-05-10T23:36:14.025Z,100479.66
2023-05-10T23:38:40.603Z,100477.59
2023-05-10T23:41:07.150Z,100468.28
2023-05-10T23:43:33.789Z,100478.91
2023-05-10T23:46:01.384Z,100480.00
2023-05-10T23:48:28.287Z,100480.72
2023-05-10T23:50:54.864Z,100481.16
2023-05-10T23:53:21.502Z,100485.34
2023-05-10T23:55:48.081Z,100486.69
2023-05-10T23:58:14.688Z,100478.53
